Loei, Loei Airport (VTUL)

NameLoei Airport
CityLoei
CountryThailand
ICAOVTUL
IATALOE
Altitude262 m
CoordinatesGoogle Map
Live Air TrafficLiveATC.net
METARVTUL 180100Z VRB02KT 0300 R01/0450N FG VV/// 20/20 Q1013 NOSIG
2019-02-18 01:00:00 Wind: North (0°) 1.03 m/s - Visibility: 300 m - Weather: Fog - Temperature: 20 °C - Dew point: 20 °C - Humidity: 100% - Pressure: 1013 hPa
Statistics

The table below shows the detailed information of all flights to/from Loei, Loei Airport (VTUL).

Ident Aircraft Coming fromFrom Going toTo Owner nameOwnerSpotted durationDurationDate
HS-MAR - DA42 - Not Available Not Available HSMAR DIAMOND DA-42 Guardian DA42 Loei, Thailand (VTUL) VTUL
498 km
Chon Buri, Thailand (VTBS) VTBS
76 km
- - 00:17:30 00:17:30 Sat, 09 Feb 2019 05:27:39 +0000 9/2/2019 5:27 am
Sat, 09 Feb 2019 05:45:09 +0000 9/2/2019 5:45 am
HS-BBQ - A320 - Thai AirAsia AIQ3549 AIRBUS A-320 A320 Loei, Thailand (VTUL) VTUL
23 km
Bangkok, Thailand (VTBD) VTBD
387 km
Thai Airasia Thai Airasia - - Thu, 31 Jan 2019 11:21:46 +0000 31/1/2019 11:21 am
HS-BBQ - A320 - Thai AirAsia AIQ3548 AIRBUS A-320 A320 Bangkok, Thailand (VTBD) VTBD
377 km
Loei, Thailand (VTUL) VTUL
35 km
Thai Airasia Thai Airasia - - Thu, 31 Jan 2019 10:14:08 +0000 31/1/2019 10:14 am
HS-BBQ - A320 - Thai AirAsia AIQ3548 AIRBUS A-320 A320 Bangkok, Thailand (VTBD) VTBD
9 km
Loei, Thailand (VTUL) VTUL
416 km
Thai Airasia Thai Airasia - - Thu, 31 Jan 2019 09:39:42 +0000 31/1/2019 9:39 am